createdAt,value
2019-06-10T00:01:28.560Z,100.00
2019-06-10T00:03:57.800Z,100.00
2019-06-10T00:06:26.509Z,100.00
2019-06-10T00:08:56.048Z,100.00
2019-06-10T00:11:24.638Z,100.00
2019-06-10T00:13:53.037Z,100.00
2019-06-10T00:16:21.405Z,100.00
2019-06-10T00:18:51.064Z,100.00
2019-06-10T00:21:21.769Z,100.00
2019-06-10T00:23:51.835Z,100.00
2019-06-10T00:26:21.590Z,100.00
2019-06-10T00:28:51.319Z,100.00
2019-06-10T00:31:20.723Z,100.00
2019-06-10T00:33:51.779Z,100.00
2019-06-10T00:36:21.581Z,100.00
2019-06-10T00:38:51.804Z,100.00
2019-06-10T00:41:21.941Z,100.00
2019-06-10T00:43:51.675Z,100.00
2019-06-10T00:46:21.215Z,100.00
2019-06-10T00:48:50.874Z,100.00
2019-06-10T00:51:20.961Z,100.00
2019-06-10T00:53:51.472Z,100.00
2019-06-10T00:56:21.589Z,100.00
2019-06-10T00:58:51.365Z,100.00
2019-06-10T01:01:21.946Z,100.00
2019-06-10T01:03:50.951Z,100.00
2019-06-10T01:06:21.341Z,100.00
2019-06-10T01:08:51.250Z,100.00
2019-06-10T01:11:26.480Z,100.00
2019-06-10T01:13:50.885Z,100.00
2019-06-10T01:16:21.491Z,100.00
2019-06-10T01:18:53.236Z,100.00
2019-06-10T01:21:21.845Z,100.00
2019-06-10T01:23:51.015Z,100.00
2019-06-10T01:26:21.613Z,100.00
2019-06-10T01:28:51.685Z,100.00
2019-06-10T01:31:23.958Z,100.00
2019-06-10T01:33:51.346Z,100.00
2019-06-10T01:36:21.087Z,100.00
2019-06-10T01:38:51.126Z,100.00
2019-06-10T01:41:21.420Z,100.00
2019-06-10T01:43:51.306Z,100.00
2019-06-10T01:46:21.194Z,100.00
2019-06-10T01:48:52.109Z,100.00
2019-06-10T01:51:21.392Z,100.00
2019-06-10T01:53:51.276Z,100.00
2019-06-10T01:56:21.394Z,100.00
2019-06-10T01:58:51.354Z,100.00
2019-06-10T02:01:39.177Z,100.00
2019-06-10T02:04:11.586Z,100.00
2019-06-10T02:06:40.618Z,100.00
2019-06-10T02:09:13.006Z,100.00
2019-06-10T02:11:41.392Z,100.00
2019-06-10T02:14:14.456Z,100.00
2019-06-10T02:16:41.484Z,100.00
2019-06-10T02:19:12.954Z,100.00
2019-06-10T02:21:41.700Z,100.00
2019-06-10T02:24:12.778Z,100.00
2019-06-10T02:26:41.151Z,100.00
2019-06-10T02:29:11.605Z,100.00
2019-06-10T02:31:43.174Z,100.00
2019-06-10T02:34:13.358Z,100.00
2019-06-10T02:36:44.226Z,100.00
2019-06-10T02:39:16.644Z,100.00
2019-06-10T02:41:44.704Z,100.00
2019-06-10T02:44:17.244Z,100.00
2019-06-10T02:46:43.850Z,100.00
2019-06-10T02:49:26.402Z,100.00
2019-06-10T02:51:44.003Z,100.00
2019-06-10T02:54:16.053Z,100.00
2019-06-10T02:56:44.140Z,100.00
2019-06-10T02:59:13.410Z,100.00
2019-06-10T03:01:43.830Z,100.00
2019-06-10T03:04:13.745Z,100.00
2019-06-10T03:06:45.001Z,100.00
2019-06-10T03:09:14.100Z,100.00
2019-06-10T03:11:44.826Z,100.00
2019-06-10T03:14:13.404Z,100.00
2019-06-10T03:16:52.757Z,100.00
2019-06-10T03:19:38.709Z,100.00
2019-06-10T03:21:52.219Z,100.00
2019-06-10T03:24:22.367Z,100.00
2019-06-10T03:26:52.243Z,100.00
2019-06-10T03:29:23.335Z,100.00
2019-06-10T03:31:55.266Z,100.00
2019-06-10T03:34:29.992Z,100.00
2019-06-10T03:36:53.490Z,100.00
2019-06-10T03:39:23.879Z,100.00
2019-06-10T03:41:52.865Z,100.00
2019-06-10T03:44:23.554Z,100.00
2019-06-10T03:46:52.425Z,100.00
2019-06-10T03:49:21.886Z,100.00
2019-06-10T03:51:52.967Z,100.00
2019-06-10T03:54:24.387Z,100.00
2019-06-10T03:56:52.148Z,100.00
2019-06-10T03:59:23.986Z,100.00
2019-06-10T04:01:52.914Z,100.00
2019-06-10T04:04:23.471Z,100.00
2019-06-10T04:06:53.183Z,100.00
2019-06-10T04:09:23.634Z,100.00
2019-06-10T04:11:53.285Z,100.00
2019-06-10T04:14:25.060Z,100.00
2019-06-10T04:16:53.032Z,100.00
2019-06-10T04:19:23.603Z,100.00
2019-06-10T04:21:53.224Z,100.00
2019-06-10T04:24:22.690Z,100.00
2019-06-10T04:26:52.236Z,100.00
2019-06-10T04:29:23.042Z,100.00
2019-06-10T04:31:52.430Z,100.00
2019-06-10T04:34:23.750Z,100.00
2019-06-10T04:36:52.583Z,100.00
2019-06-10T04:39:24.294Z,100.00
2019-06-10T04:41:53.072Z,100.00
2019-06-10T04:44:23.561Z,100.00
2019-06-10T04:46:52.206Z,100.00
2019-06-10T04:49:23.361Z,100.00
2019-06-10T04:51:52.410Z,100.00
2019-06-10T04:54:23.429Z,100.00
2019-06-10T04:56:52.886Z,100.00
2019-06-10T04:59:24.251Z,100.00
2019-06-10T05:01:53.098Z,100.00
2019-06-10T05:04:24.057Z,100.00
2019-06-10T05:06:52.681Z,100.00
2019-06-10T05:09:23.800Z,100.00
2019-06-10T05:11:52.228Z,100.00
2019-06-10T05:14:23.364Z,100.00
2019-06-10T05:16:51.300Z,100.00
2019-06-10T05:19:19.905Z,100.00
2019-06-10T05:21:48.336Z,100.00
2019-06-10T05:24:16.740Z,100.00
2019-06-10T05:26:45.317Z,100.00
2019-06-10T05:29:13.726Z,100.00
2019-06-10T05:31:43.586Z,100.00
2019-06-10T05:34:13.053Z,100.00
2019-06-10T05:36:43.665Z,100.00
2019-06-10T05:39:12.346Z,100.00
2019-06-10T05:41:43.095Z,100.00
2019-06-10T05:44:13.489Z,100.00
2019-06-10T05:46:43.595Z,100.00
2019-06-10T05:49:12.510Z,100.00
2019-06-10T05:51:42.351Z,100.00
2019-06-10T05:54:12.867Z,100.00
2019-06-10T05:56:43.281Z,100.00
2019-06-10T05:59:12.318Z,99.03
2019-06-10T06:01:43.238Z,99.39
2019-06-10T06:04:12.625Z,97.12
2019-06-10T06:06:44.812Z,98.08
2019-06-10T06:09:12.914Z,97.24
2019-06-10T06:11:43.047Z,97.00
2019-06-10T06:14:13.309Z,94.86
2019-06-10T06:16:43.307Z,97.88
2019-06-10T06:19:12.662Z,95.34
2019-06-10T06:21:46.623Z,93.64
2019-06-10T06:24:12.823Z,94.79
2019-06-10T06:26:43.171Z,96.85
2019-06-10T06:29:13.030Z,96.50
2019-06-10T06:31:42.961Z,98.12
2019-06-10T06:34:13.755Z,99.26
2019-06-10T06:36:42.435Z,98.63
2019-06-10T06:39:12.859Z,99.50
2019-06-10T06:41:42.740Z,100.00
2019-06-10T06:44:12.934Z,100.00
2019-06-10T06:46:42.984Z,99.54
2019-06-10T06:49:12.819Z,100.00
2019-06-10T06:51:51.717Z,99.03
2019-06-10T06:54:12.648Z,100.00
2019-06-10T06:56:43.770Z,96.64
2019-06-10T06:59:13.230Z,96.31
2019-06-10T07:01:44.230Z,93.95
2019-06-10T07:04:13.096Z,92.21
2019-06-10T07:06:43.253Z,91.18
2019-06-10T07:09:13.575Z,90.41
2019-06-10T07:11:45.571Z,93.10
2019-06-10T07:14:14.328Z,92.84
2019-06-10T07:16:46.146Z,93.06
2019-06-10T07:19:13.383Z,92.37
2019-06-10T07:22:04.180Z,92.75
2019-06-10T07:24:12.773Z,95.81
2019-06-10T07:26:46.223Z,100.00
2019-06-10T07:29:13.170Z,100.00
2019-06-10T07:31:45.935Z,100.00
2019-06-10T07:34:12.941Z,100.00
2019-06-10T07:36:44.095Z,100.00
2019-06-10T07:39:13.441Z,100.00
2019-06-10T07:41:47.459Z,100.00
2019-06-10T07:44:12.649Z,100.00
2019-06-10T07:46:43.771Z,100.00
2019-06-10T07:49:13.557Z,100.00
2019-06-10T07:51:45.577Z,100.00
2019-06-10T07:54:12.525Z,100.00
2019-06-10T07:56:47.847Z,100.00
2019-06-10T07:59:12.967Z,100.00
2019-06-10T08:01:48.389Z,100.00
2019-06-10T08:04:12.173Z,100.00
2019-06-10T08:06:44.040Z,100.00
2019-06-10T08:09:12.612Z,100.00
2019-06-10T08:11:44.829Z,100.00
2019-06-10T08:14:12.956Z,100.00
2019-06-10T08:16:44.773Z,100.00
2019-06-10T08:19:35.041Z,100.00
2019-06-10T08:21:46.139Z,100.00
2019-06-10T08:24:13.658Z,100.00
2019-06-10T08:26:44.277Z,100.00
2019-06-10T08:29:12.833Z,100.00
2019-06-10T08:31:44.474Z,100.00
2019-06-10T08:34:13.443Z,100.00
2019-06-10T08:36:46.105Z,100.00
2019-06-10T08:39:15.806Z,100.00
2019-06-10T08:41:45.549Z,100.00
2019-06-10T08:44:13.157Z,100.00
2019-06-10T08:46:44.997Z,100.00
2019-06-10T08:49:12.712Z,100.00
2019-06-10T08:51:45.429Z,100.00
2019-06-10T08:54:12.846Z,100.00
2019-06-10T08:56:45.562Z,100.00
2019-06-10T08:59:12.501Z,100.00
2019-06-10T09:01:46.016Z,100.00
2019-06-10T09:04:13.297Z,100.00
2019-06-10T09:06:46.335Z,100.00
2019-06-10T09:09:12.922Z,100.00
2019-06-10T09:11:46.948Z,100.00
2019-06-10T09:14:12.719Z,100.00
2019-06-10T09:16:44.406Z,100.00
2019-06-10T09:19:13.147Z,100.00
2019-06-10T09:21:48.136Z,100.00
2019-06-10T09:24:12.980Z,100.00
2019-06-10T09:26:45.024Z,100.00
2019-06-10T09:29:13.372Z,100.00
2019-06-10T09:31:46.787Z,100.00
2019-06-10T09:34:12.950Z,100.00
2019-06-10T09:36:46.225Z,100.00
2019-06-10T09:39:12.551Z,100.00
2019-06-10T09:41:51.897Z,100.00
2019-06-10T09:44:13.174Z,100.00
2019-06-10T09:46:45.975Z,100.00
2019-06-10T09:49:14.335Z,100.00
2019-06-10T09:51:45.872Z,100.00
2019-06-10T09:54:13.207Z,100.00
2019-06-10T09:56:44.068Z,100.00
2019-06-10T09:59:13.512Z,100.00
2019-06-10T10:01:47.255Z,100.00
2019-06-10T10:04:13.044Z,100.00
2019-06-10T10:06:47.721Z,100.00
2019-06-10T10:09:12.915Z,100.00
2019-06-10T10:11:44.080Z,100.00
2019-06-10T10:14:15.795Z,100.00
2019-06-10T10:16:45.647Z,100.00
2019-06-10T10:19:13.115Z,100.00
2019-06-10T10:21:47.409Z,100.00
2019-06-10T10:24:14.976Z,100.00
2019-06-10T10:26:45.236Z,100.00
2019-06-10T10:29:13.184Z,100.00
2019-06-10T10:31:45.023Z,100.00
2019-06-10T10:34:13.482Z,100.00
2019-06-10T10:36:44.933Z,100.00
2019-06-10T10:39:13.933Z,100.00
2019-06-10T10:41:44.769Z,100.00
2019-06-10T10:44:13.783Z,100.00
2019-06-10T10:46:44.376Z,100.00
2019-06-10T10:49:14.285Z,100.00
2019-06-10T10:51:43.009Z,100.00
2019-06-10T10:54:22.346Z,100.00
2019-06-10T10:56:43.634Z,100.00
2019-06-10T10:59:12.819Z,100.00
2019-06-10T11:01:42.706Z,100.00
2019-06-10T11:04:13.308Z,100.00
2019-06-10T11:06:42.977Z,100.00
2019-06-10T11:09:14.317Z,100.00
2019-06-10T11:11:44.539Z,100.00
2019-06-10T11:14:15.389Z,100.00
2019-06-10T11:16:45.256Z,100.00
2019-06-10T11:19:13.852Z,100.00
2019-06-10T11:21:43.258Z,100.00
2019-06-10T11:24:14.239Z,100.00
2019-06-10T11:26:43.204Z,100.00
2019-06-10T11:29:11.848Z,100.00
2019-06-10T11:31:42.614Z,100.00
2019-06-10T11:34:11.557Z,100.00
2019-06-10T11:36:42.367Z,100.00
2019-06-10T11:39:13.168Z,100.00
2019-06-10T11:41:43.141Z,100.00
2019-06-10T11:44:11.526Z,100.00
2019-06-10T11:46:40.121Z,100.00
2019-06-10T11:49:08.658Z,100.00
2019-06-10T11:51:37.243Z,100.00
2019-06-10T11:54:06.086Z,100.00
2019-06-10T11:56:34.901Z,100.00
2019-06-10T11:59:09.007Z,100.00
2019-06-10T12:01:34.080Z,100.00
2019-06-10T12:04:04.156Z,100.00
2019-06-10T12:06:34.079Z,100.00
2019-06-10T12:09:06.629Z,100.00
2019-06-10T12:11:35.059Z,100.00
2019-06-10T12:14:04.758Z,100.00
2019-06-10T12:17:15.714Z,100.00
2019-06-10T12:19:03.903Z,100.00
2019-06-10T12:21:33.105Z,100.00
2019-06-10T12:24:02.814Z,100.00
2019-06-10T12:26:33.424Z,100.00
2019-06-10T12:29:05.576Z,100.00
2019-06-10T12:31:34.531Z,100.00
2019-06-10T12:34:05.755Z,100.00
2019-06-10T12:36:33.439Z,100.00
2019-06-10T12:39:09.817Z,100.00
2019-06-10T12:41:33.232Z,100.00
2019-06-10T12:44:03.292Z,100.00
2019-06-10T12:46:32.860Z,100.00
2019-06-10T12:49:06.611Z,100.00
2019-06-10T12:51:32.696Z,100.00
2019-06-10T12:54:04.797Z,100.00
2019-06-10T12:56:32.768Z,100.00
2019-06-10T12:59:06.817Z,100.00
2019-06-10T13:01:33.033Z,100.00
2019-06-10T13:04:05.355Z,100.00
2019-06-10T13:06:33.190Z,100.00
2019-06-10T13:09:03.882Z,100.00
2019-06-10T13:11:33.486Z,100.00
2019-06-10T13:14:04.064Z,100.00
2019-06-10T13:16:33.272Z,100.00
2019-06-10T13:19:04.518Z,100.00
2019-06-10T13:21:32.951Z,100.00
2019-06-10T13:24:03.741Z,100.00
2019-06-10T13:26:35.220Z,100.00
2019-06-10T13:29:06.598Z,100.00
2019-06-10T13:31:34.467Z,100.00
2019-06-10T13:34:07.078Z,100.00
2019-06-10T13:36:33.717Z,100.00
2019-06-10T13:39:08.209Z,100.00
2019-06-10T13:41:35.180Z,100.00
2019-06-10T13:44:04.314Z,100.00
2019-06-10T13:46:33.321Z,100.00
2019-06-10T13:49:04.446Z,100.00
2019-06-10T13:51:35.516Z,100.00
2019-06-10T13:54:03.783Z,100.00
2019-06-10T13:56:46.199Z,100.00
2019-06-10T13:59:07.462Z,100.00
2019-06-10T14:01:35.102Z,100.00
2019-06-10T14:04:12.764Z,100.00
2019-06-10T14:22:42.654Z,100.00
2019-06-10T14:25:16.966Z,100.00
2019-06-10T14:27:45.577Z,100.00
2019-06-10T14:30:15.518Z,100.00
2019-06-10T14:32:44.016Z,100.00
2019-06-10T14:35:16.154Z,100.00
2019-06-10T14:37:43.880Z,100.00
2019-06-10T14:40:20.047Z,100.00
2019-06-10T14:42:43.511Z,100.00
2019-06-10T14:45:13.917Z,100.00
2019-06-10T14:47:43.264Z,100.00
2019-06-10T14:50:15.344Z,100.00
2019-06-10T14:52:43.908Z,100.00
2019-06-10T14:55:16.399Z,100.00
2019-06-10T14:57:43.155Z,100.00
2019-06-10T15:00:17.671Z,100.00
2019-06-10T15:02:44.348Z,100.00
2019-06-10T15:05:15.732Z,100.00
2019-06-10T15:07:44.013Z,100.00
2019-06-10T15:10:16.051Z,100.00
2019-06-10T15:12:43.773Z,100.00
2019-06-10T15:15:12.602Z,100.00
2019-06-10T15:17:43.058Z,100.00
2019-06-10T15:20:12.188Z,100.00
2019-06-10T15:22:42.988Z,100.00
2019-06-10T15:25:15.868Z,100.00
2019-06-10T15:27:44.032Z,100.00
2019-06-10T15:30:22.549Z,100.00
2019-06-10T15:32:44.805Z,100.00
2019-06-10T15:35:16.383Z,100.00
2019-06-10T15:37:44.309Z,100.00
2019-06-10T15:40:14.076Z,100.00
2019-06-10T15:42:44.445Z,100.00
2019-06-10T15:45:16.286Z,100.00
2019-06-10T15:47:43.708Z,100.00
2019-06-10T15:50:13.155Z,100.00
2019-06-10T15:52:43.197Z,100.00
2019-06-10T15:55:14.904Z,100.00
2019-06-10T15:57:46.222Z,100.00
2019-06-10T16:00:20.006Z,100.00
2019-06-10T16:02:44.873Z,100.00
2019-06-10T16:05:15.641Z,100.00
2019-06-10T16:07:44.176Z,100.00
2019-06-10T16:10:17.852Z,100.00
2019-06-10T16:12:44.251Z,100.00
2019-06-10T16:15:14.941Z,100.00
2019-06-10T16:17:44.021Z,100.00
2019-06-10T16:20:14.392Z,100.00
2019-06-10T16:22:43.419Z,100.00
2019-06-10T16:25:12.702Z,100.00
2019-06-10T16:27:48.470Z,100.00
2019-06-10T16:30:14.652Z,100.00
2019-06-10T16:32:46.413Z,100.00
2019-06-10T16:35:14.750Z,100.00
2019-06-10T16:37:43.399Z,100.00
2019-06-10T16:40:12.395Z,100.00
2019-06-10T16:42:43.080Z,100.00
2019-06-10T16:45:12.951Z,100.00
2019-06-10T16:47:43.127Z,100.00
2019-06-10T16:50:12.305Z,100.00
2019-06-10T16:52:43.097Z,100.00
2019-06-10T16:55:12.767Z,100.00
2019-06-10T16:57:41.475Z,100.00
2019-06-10T17:00:12.003Z,100.00
2019-06-10T17:02:42.670Z,100.00
2019-06-10T17:05:11.921Z,100.00
2019-06-10T17:07:43.376Z,100.00
2019-06-10T17:10:12.647Z,100.00
2019-06-10T17:12:42.641Z,100.00
2019-06-10T17:15:13.019Z,100.00
2019-06-10T17:17:41.763Z,100.00
2019-06-10T17:20:10.378Z,100.00
2019-06-10T17:22:39.258Z,100.00
2019-06-10T17:25:08.088Z,100.00
2019-06-10T17:27:36.687Z,100.00
2019-06-10T17:30:06.210Z,100.00
2019-06-10T17:32:34.879Z,100.00
2019-06-10T17:35:04.201Z,100.00
2019-06-10T17:37:33.742Z,100.00
2019-06-10T17:40:02.852Z,100.00
2019-06-10T17:42:37.290Z,100.00
2019-06-10T17:45:02.567Z,100.00
2019-06-10T17:47:32.405Z,100.00
2019-06-10T17:50:02.445Z,100.00
2019-06-10T17:52:33.186Z,100.00
2019-06-10T17:55:03.367Z,100.00
2019-06-10T17:57:36.082Z,100.00
2019-06-10T18:00:11.124Z,100.00
2019-06-10T18:02:39.186Z,100.00
2019-06-10T18:05:06.122Z,100.00
2019-06-10T18:07:35.791Z,100.00
2019-06-10T18:10:05.362Z,100.00
2019-06-10T18:12:35.773Z,100.00
2019-06-10T18:15:05.484Z,100.00
2019-06-10T18:17:36.314Z,100.00
2019-06-10T18:20:05.537Z,100.00
2019-06-10T18:22:36.989Z,100.00
2019-06-10T18:25:05.388Z,100.00
2019-06-10T18:27:35.508Z,100.00
2019-06-10T18:30:10.932Z,100.00
2019-06-10T18:32:37.449Z,100.00
2019-06-10T18:35:07.505Z,100.00
2019-06-10T18:37:37.561Z,100.00
2019-06-10T18:40:08.766Z,100.00
2019-06-10T18:42:37.265Z,100.00
2019-06-10T18:45:06.770Z,100.00
2019-06-10T18:47:36.111Z,100.00
2019-06-10T18:50:07.794Z,100.00
2019-06-10T18:52:36.286Z,100.00
2019-06-10T18:55:05.937Z,100.00
2019-06-10T18:57:36.281Z,100.00
2019-06-10T19:00:11.267Z,100.00
2019-06-10T19:02:36.777Z,100.00
2019-06-10T19:05:05.519Z,100.00
2019-06-10T19:07:36.316Z,100.00
2019-06-10T19:10:04.944Z,100.00
2019-06-10T19:12:34.129Z,100.00
2019-06-10T19:15:04.278Z,100.00
2019-06-10T19:17:35.351Z,100.00
2019-06-10T19:20:04.094Z,100.00
2019-06-10T19:22:34.660Z,100.00
2019-06-10T19:25:03.805Z,100.00
2019-06-10T19:27:34.779Z,100.00
2019-06-10T19:30:04.198Z,100.00
2019-06-10T19:32:34.091Z,100.00
2019-06-10T19:35:07.038Z,100.00
2019-06-10T19:37:36.144Z,100.00
2019-06-10T19:40:05.468Z,100.00
2019-06-10T19:42:35.380Z,100.00
2019-06-10T19:45:07.256Z,100.00
2019-06-10T19:47:36.320Z,100.00
2019-06-10T19:50:06.494Z,100.00
2019-06-10T19:52:35.326Z,100.00
2019-06-10T19:55:07.084Z,100.00
2019-06-10T19:57:35.921Z,100.00
2019-06-10T20:00:11.767Z,100.00
2019-06-10T20:02:35.873Z,100.00
2019-06-10T20:05:05.349Z,100.00
2019-06-10T20:07:34.019Z,100.00
2019-06-10T20:10:02.945Z,100.00
2019-06-10T20:12:32.514Z,100.00
2019-06-10T20:15:02.273Z,100.00
2019-06-10T20:17:32.806Z,100.00
2019-06-10T20:20:02.502Z,100.00
2019-06-10T20:22:32.079Z,100.00
2019-06-10T20:25:03.655Z,100.00
2019-06-10T20:27:33.051Z,100.00
2019-06-10T20:30:09.989Z,100.00
2019-06-10T20:32:33.693Z,100.00
2019-06-10T20:35:03.063Z,100.00
2019-06-10T20:37:32.627Z,100.00
2019-06-10T20:40:03.693Z,100.00
2019-06-10T20:42:32.297Z,100.00
2019-06-10T20:45:04.633Z,100.00
2019-06-10T20:47:33.317Z,100.00
2019-06-10T20:50:03.257Z,100.00
2019-06-10T20:52:32.581Z,100.00
2019-06-10T20:55:02.979Z,100.00
2019-06-10T20:57:33.113Z,100.00
2019-06-10T21:00:01.996Z,100.00
2019-06-10T21:02:32.551Z,100.00
2019-06-10T21:05:02.858Z,100.00
2019-06-10T21:07:32.415Z,100.00
2019-06-10T21:10:02.946Z,100.00
2019-06-10T21:12:32.693Z,100.00
2019-06-10T21:15:02.390Z,100.00
2019-06-10T21:17:33.126Z,100.00
2019-06-10T21:20:03.447Z,100.00
2019-06-10T21:22:32.531Z,100.00
2019-06-10T21:25:02.403Z,100.00
2019-06-10T21:27:32.866Z,100.00
2019-06-10T21:30:03.106Z,100.00
2019-06-10T21:32:32.645Z,100.00
2019-06-10T21:35:03.079Z,100.00
2019-06-10T21:37:32.047Z,100.00
2019-06-10T21:40:03.230Z,100.00
2019-06-10T21:42:32.728Z,100.00
2019-06-10T21:45:03.427Z,100.00
2019-06-10T21:47:32.370Z,100.00
2019-06-10T21:50:00.979Z,100.00
2019-06-10T21:52:29.536Z,100.00
2019-06-10T21:54:58.009Z,100.00
2019-06-10T21:57:26.606Z,100.00
2019-06-10T21:59:55.440Z,100.00
2019-06-10T22:02:24.134Z,100.00
2019-06-10T22:04:55.382Z,100.00
2019-06-10T22:07:23.085Z,100.00
2019-06-10T22:09:54.450Z,100.00
2019-06-10T22:12:22.339Z,100.00
2019-06-10T22:14:50.882Z,100.00
2019-06-10T22:17:19.471Z,100.00
2019-06-10T22:19:48.551Z,100.00
2019-06-10T22:22:17.405Z,100.00
2019-06-10T22:24:46.687Z,100.00
2019-06-10T22:27:15.422Z,100.00
2019-06-10T22:29:45.056Z,100.00
2019-06-10T22:32:13.854Z,100.00
2019-06-10T22:34:42.450Z,100.00
2019-06-10T22:37:12.462Z,100.00
2019-06-10T22:39:42.077Z,100.00
2019-06-10T22:42:12.266Z,100.00
2019-06-10T22:44:42.402Z,100.00
2019-06-10T22:47:12.195Z,100.00
2019-06-10T22:49:43.040Z,100.00
2019-06-10T22:52:12.574Z,100.00
2019-06-10T22:54:42.966Z,100.00
2019-06-10T22:57:12.928Z,100.00
2019-06-10T22:59:42.545Z,100.00
2019-06-10T23:02:13.190Z,100.00
2019-06-10T23:04:43.464Z,100.00
2019-06-10T23:07:13.244Z,100.00
2019-06-10T23:09:42.888Z,100.00
2019-06-10T23:12:12.025Z,100.00
2019-06-10T23:14:43.241Z,100.00
2019-06-10T23:17:11.246Z,100.00
2019-06-10T23:19:42.797Z,100.00
2019-06-10T23:22:12.652Z,100.00
2019-06-10T23:24:42.672Z,100.00
2019-06-10T23:27:13.042Z,100.00
2019-06-10T23:29:42.780Z,100.00
2019-06-10T23:32:12.989Z,100.00
2019-06-10T23:34:42.237Z,100.00
2019-06-10T23:37:12.572Z,100.00
2019-06-10T23:39:42.590Z,100.00
2019-06-10T23:42:12.210Z,100.00
2019-06-10T23:44:41.013Z,100.00
2019-06-10T23:47:09.423Z,100.00
2019-06-10T23:49:37.989Z,100.00
2019-06-10T23:52:06.572Z,100.00
2019-06-10T23:54:35.168Z,100.00
2019-06-10T23:57:05.693Z,100.00
2019-06-10T23:59:34.261Z,100.00
